createdAt,value
2018-04-28T00:02:50.133Z,99.99
2018-04-28T00:12:45.231Z,99.99
2018-04-28T00:22:42.692Z,99.99
2018-04-28T00:32:40.285Z,99.99
2018-04-28T00:42:36.988Z,99.99
2018-04-28T00:52:35.487Z,99.99
2018-04-28T01:02:33.950Z,99.99
2018-04-28T01:12:27.635Z,99.99
2018-04-28T01:22:25.542Z,99.99
2018-04-28T01:32:23.366Z,99.99
2018-04-28T01:42:20.662Z,99.99
2018-04-28T01:52:16.414Z,99.99
2018-04-28T02:02:10.008Z,99.99
2018-04-28T02:12:07.455Z,99.99
2018-04-28T02:22:04.964Z,99.99
2018-04-28T02:31:59.971Z,99.99
2018-04-28T02:42:05.962Z,99.99
2018-04-28T02:52:02.544Z,99.99
2018-04-28T03:02:00.671Z,99.99
2018-04-28T03:11:58.008Z,99.99
2018-04-28T03:21:53.279Z,99.99
2018-04-28T03:31:52.359Z,99.99
2018-04-28T03:41:49.782Z,99.99
2018-04-28T03:51:45.569Z,99.99
2018-04-28T04:01:43.060Z,99.99
2018-04-28T04:11:41.391Z,99.99
2018-04-28T04:21:35.844Z,99.99
2018-04-28T04:31:33.216Z,99.99
2018-04-28T04:41:30.354Z,99.99
2018-04-28T04:51:27.670Z,99.99
2018-04-28T05:01:24.223Z,99.99
2018-04-28T05:11:22.927Z,99.99
2018-04-28T05:21:19.268Z,99.99
2018-04-28T05:31:13.396Z,99.99
2018-04-28T05:41:11.256Z,99.99
2018-04-28T05:51:06.934Z,99.99
2018-04-28T06:01:02.276Z,99.99
2018-04-28T06:11:00.734Z,99.99
2018-04-28T06:20:59.554Z,99.99
2018-04-28T06:30:58.855Z,97.22
2018-04-28T06:40:56.105Z,98.65
2018-04-28T06:50:52.552Z,97.03
2018-04-28T07:00:52.099Z,94.82
2018-04-28T07:10:49.604Z,93.36
2018-04-28T07:20:45.110Z,87.38
2018-04-28T07:30:42.396Z,86.22
2018-04-28T07:40:37.719Z,84.49
2018-04-28T07:50:33.824Z,82.54
2018-04-28T08:00:16.384Z,83.81
2018-04-28T08:10:13.886Z,82.36
2018-04-28T08:20:10.751Z,80.57
2018-04-28T08:30:10.129Z,79.09
2018-04-28T08:40:07.102Z,76.25
2018-04-28T08:50:05.610Z,76.81
2018-04-28T09:00:02.777Z,73.63
2018-04-28T09:10:01.624Z,74.70
2018-04-28T09:19:47.203Z,72.76
2018-04-28T09:29:30.277Z,71.39
2018-04-28T09:39:27.599Z,70.16
2018-04-28T09:49:22.249Z,67.90
2018-04-28T09:59:18.650Z,66.43
2018-04-28T10:09:14.737Z,65.14
2018-04-28T10:19:11.626Z,64.58
2018-04-28T10:29:10.920Z,65.34
2018-04-28T10:38:49.375Z,69.53
2018-04-28T10:48:46.441Z,62.80
2018-04-28T10:58:24.690Z,67.26
2018-04-28T11:08:03.025Z,65.73
2018-04-28T11:17:40.896Z,67.66
2018-04-28T11:27:19.490Z,62.32
2018-04-28T11:36:57.854Z,58.33
2018-04-28T11:46:36.189Z,57.34
2018-04-28T11:56:14.070Z,57.29
2018-04-28T12:05:51.392Z,56.85
2018-04-28T12:15:28.833Z,60.53
2018-04-28T12:25:06.492Z,60.96
2018-04-28T12:34:44.131Z,63.90
2018-04-28T12:44:26.754Z,57.82
2018-04-28T12:53:57.213Z,61.50
2018-04-28T13:03:39.445Z,57.88
2018-04-28T13:13:10.432Z,50.88
2018-04-28T13:22:53.426Z,49.38
2018-04-28T13:32:27.850Z,46.56
2018-04-28T13:42:03.563Z,52.33
2018-04-28T13:51:37.679Z,49.33
2018-04-28T14:01:05.595Z,52.45
2018-04-28T14:10:48.851Z,50.02
2018-04-28T14:20:20.717Z,53.44
2018-04-28T14:29:47.538Z,59.84
2018-04-28T14:39:24.608Z,60.13
2018-04-28T14:48:58.878Z,62.99
2018-04-28T14:58:35.419Z,60.44
2018-04-28T15:08:13.894Z,61.96
2018-04-28T15:17:52.370Z,59.19
2018-04-28T15:27:34.926Z,54.44
2018-04-28T15:37:07.429Z,59.22
2018-04-28T15:46:39.421Z,66.61
2018-04-28T15:56:14.075Z,63.29
2018-04-28T16:05:50.619Z,67.10
2018-04-28T16:15:46.774Z,69.43
2018-04-28T16:25:42.736Z,72.60
2018-04-28T16:35:37.313Z,66.25
2018-04-28T16:45:35.272Z,65.31
2018-04-28T16:55:30.033Z,84.89
2018-04-28T17:05:25.363Z,81.37
2018-04-28T17:15:22.125Z,75.56
2018-04-28T17:25:17.728Z,85.60
2018-04-28T17:35:11.884Z,86.18
2018-04-28T17:45:09.403Z,88.97
2018-04-28T17:55:06.422Z,92.41
2018-04-28T18:05:01.103Z,91.35
2018-04-28T18:14:56.342Z,92.71
2018-04-28T18:24:52.894Z,96.92
2018-04-28T18:34:48.702Z,95.66
2018-04-28T18:44:46.072Z,97.42
2018-04-28T18:54:42.025Z,98.53
2018-04-28T19:04:39.507Z,99.08
2018-04-28T19:14:36.767Z,99.22
2018-04-28T19:24:31.491Z,99.99
2018-04-28T19:34:28.307Z,99.68
2018-04-28T19:44:25.582Z,99.99
2018-04-28T19:54:21.726Z,99.99
2018-04-28T20:04:16.327Z,99.99
2018-04-28T20:14:13.142Z,99.99
2018-04-28T20:24:09.080Z,99.99
2018-04-28T20:34:03.634Z,99.99
2018-04-28T20:44:01.356Z,99.99
2018-04-28T20:53:57.833Z,99.99
2018-04-28T21:03:55.049Z,99.99
2018-04-28T21:13:52.925Z,99.99
2018-04-28T21:23:49.226Z,99.99
2018-04-28T21:33:43.440Z,99.99
2018-04-28T21:43:41.312Z,99.99
2018-04-28T21:53:40.056Z,99.99
2018-04-28T22:03:36.958Z,99.99
2018-04-28T22:13:33.460Z,99.99
2018-04-28T22:23:32.017Z,99.99
2018-04-28T22:33:29.099Z,99.99
2018-04-28T22:43:25.667Z,99.99
2018-04-28T22:53:21.493Z,99.99
2018-04-28T23:03:19.306Z,99.99
2018-04-28T23:13:16.475Z,99.99
2018-04-28T23:23:12.815Z,99.99
2018-04-28T23:33:07.790Z,99.99
2018-04-28T23:43:06.822Z,99.99
2018-04-28T23:53:04.529Z,99.99
